createdAt,value
2022-11-12T00:02:34.979Z,101885.66
2022-11-12T00:05:20.839Z,101887.78
2022-11-12T00:08:06.569Z,101887.44
2022-11-12T00:10:52.389Z,101897.97
2022-11-12T00:13:38.193Z,101898.06
2022-11-12T00:16:23.837Z,101896.25
2022-11-12T00:19:09.501Z,101901.56
2022-11-12T00:21:54.776Z,101898.50
2022-11-12T00:24:40.684Z,101893.75
2022-11-12T00:27:26.581Z,101899.09
2022-11-12T00:30:13.059Z,101899.38
2022-11-12T00:33:02.934Z,101892.13
2022-11-12T00:35:49.076Z,101898.63
2022-11-12T00:38:34.886Z,101902.69
2022-11-12T00:41:20.643Z,101903.75
2022-11-12T00:44:06.505Z,101896.69
2022-11-12T00:46:52.270Z,101896.25
2022-11-12T00:49:38.237Z,101892.84
2022-11-12T00:52:26.534Z,101879.28
2022-11-12T00:55:12.101Z,101876.88
2022-11-12T00:58:01.199Z,101880.41
2022-11-12T01:00:47.006Z,101869.56
2022-11-12T01:03:32.750Z,101876.22
2022-11-12T01:06:21.798Z,101878.75
2022-11-12T01:09:09.096Z,101885.72
2022-11-12T01:11:54.880Z,101887.28
2022-11-12T01:14:40.433Z,101879.56
2022-11-12T01:17:26.309Z,101871.75
2022-11-12T01:20:12.093Z,101874.47
2022-11-12T01:22:57.915Z,101873.66
2022-11-12T01:25:43.365Z,101864.53
2022-11-12T01:28:29.477Z,101854.75
2022-11-12T01:31:26.582Z,101853.91
2022-11-12T01:34:12.141Z,101846.34
2022-11-12T01:36:57.852Z,101845.38
2022-11-12T01:39:43.277Z,101835.75
2022-11-12T01:42:32.045Z,101838.97
2022-11-12T01:45:17.703Z,101836.44
2022-11-12T01:48:04.643Z,101826.94
2022-11-12T01:50:51.138Z,101830.47
2022-11-12T01:53:41.953Z,101836.84
2022-11-12T01:56:30.968Z,101834.94
2022-11-12T01:59:22.247Z,101831.13
2022-11-12T02:02:08.959Z,101822.06
2022-11-12T02:04:56.006Z,101816.91
2022-11-12T02:07:44.158Z,101810.25
2022-11-12T02:10:30.037Z,101811.00
2022-11-12T02:13:34.675Z,101810.22
2022-11-12T02:16:20.669Z,101808.53
2022-11-12T02:19:09.436Z,101801.72
2022-11-12T02:21:54.973Z,101799.53
2022-11-12T02:24:40.487Z,101798.09
2022-11-12T02:27:26.385Z,101789.47
2022-11-12T02:30:12.737Z,101793.25
2022-11-12T02:32:59.002Z,101780.19
2022-11-12T02:35:44.874Z,101782.13
2022-11-12T02:38:30.585Z,101778.06
2022-11-12T02:41:16.209Z,101777.25
2022-11-12T02:44:01.709Z,101778.78
2022-11-12T02:46:47.471Z,101783.31
2022-11-12T02:49:32.965Z,101782.19
2022-11-12T02:52:18.627Z,101776.66
2022-11-12T02:55:04.361Z,101778.47
2022-11-12T02:57:49.981Z,101771.06
2022-11-12T03:00:35.544Z,101768.78
2022-11-12T03:03:21.312Z,101770.06
2022-11-12T03:06:07.537Z,101773.19
2022-11-12T03:08:52.855Z,101772.72
2022-11-12T03:11:38.489Z,101764.56
2022-11-12T03:14:24.468Z,101770.81
2022-11-12T03:17:10.187Z,101774.88
2022-11-12T03:19:55.651Z,101768.25
2022-11-12T03:22:41.720Z,101768.66
2022-11-12T03:25:28.246Z,101767.16
2022-11-12T03:28:16.838Z,101761.34
2022-11-12T03:31:03.217Z,101764.31
2022-11-12T03:33:48.795Z,101770.97
2022-11-12T03:36:34.410Z,101771.91
2022-11-12T03:39:20.845Z,101774.47
2022-11-12T03:42:06.900Z,101768.78
2022-11-12T03:44:52.858Z,101769.22
2022-11-12T03:47:44.685Z,101769.34
2022-11-12T03:50:30.861Z,101770.56
2022-11-12T03:53:16.712Z,101763.09
2022-11-12T03:56:02.259Z,101755.31
2022-11-12T03:58:47.656Z,101752.97
2022-11-12T04:01:33.782Z,101742.84
2022-11-12T04:04:19.429Z,101749.88
2022-11-12T04:07:23.682Z,101757.34
2022-11-12T04:10:10.075Z,101747.44
2022-11-12T04:13:14.707Z,101739.97
2022-11-12T04:16:22.730Z,101742.97
2022-11-12T04:19:31.284Z,101746.34
2022-11-12T04:22:16.863Z,101744.00
2022-11-12T04:25:21.099Z,101732.44
2022-11-12T04:28:06.695Z,101721.88
2022-11-12T04:30:52.148Z,101710.28
2022-11-12T04:33:37.602Z,101701.28
2022-11-12T04:36:23.376Z,101697.94
2022-11-12T04:39:09.148Z,101693.88
2022-11-12T04:42:14.405Z,101685.59
2022-11-12T04:45:01.174Z,101692.16
2022-11-12T04:47:47.110Z,101686.03
2022-11-12T04:50:33.464Z,101682.19
2022-11-12T04:53:19.259Z,101678.16
2022-11-12T04:56:04.889Z,101666.84
2022-11-12T04:58:50.843Z,101669.72
2022-11-12T05:01:36.463Z,101669.09
2022-11-12T05:04:22.259Z,101662.38
2022-11-12T05:07:08.348Z,101655.44
2022-11-12T05:09:54.019Z,101663.19
2022-11-12T05:12:39.407Z,101659.53
2022-11-12T05:15:25.049Z,101656.16
2022-11-12T05:18:10.882Z,101657.38
2022-11-12T05:20:56.356Z,101651.81
2022-11-12T05:23:41.705Z,101661.06
2022-11-12T05:26:27.549Z,101665.25
2022-11-12T05:29:12.865Z,101664.09
2022-11-12T05:32:18.236Z,101658.19
2022-11-12T05:35:04.246Z,101659.03
2022-11-12T05:37:49.978Z,101657.69
2022-11-12T05:40:35.518Z,101661.22
2022-11-12T05:43:21.039Z,101667.78
2022-11-12T05:46:06.691Z,101673.63
2022-11-12T05:48:52.487Z,101672.47
2022-11-12T05:51:38.602Z,101667.78
2022-11-12T05:54:25.139Z,101676.00
2022-11-12T05:57:10.439Z,101674.66
2022-11-12T05:59:55.994Z,101677.34
2022-11-12T06:02:43.059Z,101681.53
2022-11-12T06:05:28.937Z,101689.25
2022-11-12T06:08:14.696Z,101696.97
2022-11-12T06:11:00.541Z,101703.34
2022-11-12T06:13:46.370Z,101704.22
2022-11-12T06:16:32.844Z,101707.91
2022-11-12T06:19:18.693Z,101701.66
2022-11-12T06:22:04.470Z,101707.53
2022-11-12T06:24:50.035Z,101711.75
2022-11-12T06:27:37.234Z,101708.91
2022-11-12T06:30:25.810Z,101719.63
2022-11-12T06:33:11.684Z,101717.13
2022-11-12T06:36:03.139Z,101722.81
2022-11-12T06:38:49.274Z,101719.47
2022-11-12T06:41:34.700Z,101721.47
2022-11-12T06:44:22.293Z,101727.84
2022-11-12T06:47:09.702Z,101724.34
2022-11-12T06:49:55.552Z,101727.00
2022-11-12T06:52:41.049Z,101729.19
2022-11-12T06:55:28.628Z,101728.34
2022-11-12T06:58:14.014Z,101735.84
2022-11-12T07:01:11.265Z,101736.53
2022-11-12T07:03:57.516Z,101741.09
2022-11-12T07:06:43.253Z,101732.59
2022-11-12T07:09:28.982Z,101746.47
2022-11-12T07:12:14.546Z,101737.53
2022-11-12T07:15:00.139Z,101732.00
2022-11-12T07:17:46.957Z,101733.50
2022-11-12T07:20:32.503Z,101725.72
2022-11-12T07:23:18.161Z,101727.56
2022-11-12T07:26:12.581Z,101724.66
2022-11-12T07:28:58.089Z,101722.75
2022-11-12T07:31:45.078Z,101728.78
2022-11-12T07:34:30.972Z,101732.81
2022-11-12T07:37:16.753Z,101741.56
2022-11-12T07:40:03.899Z,101752.31
2022-11-12T07:42:49.316Z,101745.63
2022-11-12T07:45:34.880Z,101748.97
2022-11-12T07:48:20.366Z,101754.84
2022-11-12T07:51:14.425Z,101761.34
2022-11-12T07:54:00.226Z,101758.16
2022-11-12T07:56:46.047Z,101767.34
2022-11-12T07:59:31.921Z,101773.69
2022-11-12T08:02:17.498Z,101767.84
2022-11-12T08:05:03.520Z,101774.56
2022-11-12T08:07:50.825Z,101763.47
2022-11-12T08:10:36.340Z,101769.81
2022-11-12T08:13:21.944Z,101777.28
2022-11-12T08:16:07.668Z,101775.00
2022-11-12T08:18:53.652Z,101776.03
2022-11-12T08:21:39.405Z,101775.88
2022-11-12T08:24:24.650Z,101786.09
2022-11-12T08:27:10.434Z,101772.13
2022-11-12T08:29:56.045Z,101776.69
2022-11-12T08:32:41.739Z,101780.91
2022-11-12T08:35:28.787Z,101776.28
2022-11-12T08:38:14.324Z,101777.88
2022-11-12T08:41:04.858Z,101776.69
2022-11-12T08:43:50.426Z,101768.56
2022-11-12T08:46:36.050Z,101770.53
2022-11-12T08:49:21.587Z,101782.31
2022-11-12T08:52:07.147Z,101786.44
2022-11-12T08:54:52.712Z,101781.59
2022-11-12T08:57:42.775Z,101791.31
2022-11-12T09:00:39.088Z,101793.09
2022-11-12T09:03:26.463Z,101796.13
2022-11-12T09:06:12.106Z,101786.63
2022-11-12T09:08:57.576Z,101790.31
2022-11-12T09:11:43.419Z,101803.34
2022-11-12T09:14:28.814Z,101803.41
2022-11-12T09:17:15.212Z,101808.81
2022-11-12T09:20:00.966Z,101805.75
2022-11-12T09:22:46.341Z,101808.38
2022-11-12T09:25:31.901Z,101814.28
2022-11-12T09:28:19.061Z,101814.59
2022-11-12T09:31:07.229Z,101822.81
2022-11-12T09:33:53.125Z,101827.69
2022-11-12T09:36:40.093Z,101826.81
2022-11-12T09:39:25.856Z,101825.06
2022-11-12T09:42:18.059Z,101817.41
2022-11-12T09:45:13.275Z,101819.25
2022-11-12T09:48:09.290Z,101824.06
2022-11-12T09:51:02.583Z,101831.41
2022-11-12T09:53:57.142Z,101818.63
2022-11-12T09:56:43.088Z,101814.75
2022-11-12T09:59:34.718Z,101811.78
2022-11-12T10:02:20.365Z,101810.69
2022-11-12T10:05:24.054Z,101814.78
2022-11-12T10:08:19.021Z,101802.41
2022-11-12T10:11:22.974Z,101796.84
2022-11-12T10:14:40.475Z,101794.31
2022-11-12T10:17:51.603Z,101790.59
2022-11-12T10:20:52.803Z,101785.25
2022-11-12T10:23:47.348Z,101789.03
2022-11-12T10:26:34.856Z,101770.75
2022-11-12T10:29:48.352Z,101766.22
2022-11-12T10:32:35.902Z,101771.75
2022-11-12T10:35:23.719Z,101766.88
2022-11-12T10:38:15.884Z,101766.50
2022-11-12T10:41:19.255Z,101765.47
2022-11-12T10:44:07.134Z,101747.06
2022-11-12T10:47:29.880Z,101741.19
2022-11-12T10:50:20.660Z,101729.88
2022-11-12T10:53:10.587Z,101722.38
2022-11-12T10:55:59.534Z,101719.78
2022-11-12T10:58:45.617Z,101720.38
2022-11-12T11:01:35.760Z,101714.50
2022-11-12T11:04:28.301Z,101702.75
2022-11-12T11:07:23.395Z,101710.06
2022-11-12T11:10:23.622Z,101698.06
2022-11-12T11:13:28.140Z,101694.06
2022-11-12T11:16:22.564Z,101708.63
2022-11-12T11:19:09.559Z,101699.47
2022-11-12T11:22:03.177Z,101683.41
2022-11-12T11:24:48.697Z,101686.31
2022-11-12T11:27:39.101Z,101691.59
2022-11-12T11:30:25.046Z,101689.53
2022-11-12T11:33:32.835Z,101687.53
2022-11-12T11:36:41.246Z,101691.09
2022-11-12T11:39:43.029Z,101700.00
2022-11-12T11:42:28.234Z,101698.63
2022-11-12T11:46:01.016Z,101707.22
2022-11-12T11:49:22.996Z,101701.91
2022-11-12T11:52:24.322Z,101702.34
2022-11-12T11:55:10.144Z,101708.25
2022-11-12T11:58:07.708Z,101717.66
2022-11-12T12:01:27.560Z,101722.00
2022-11-12T12:04:40.677Z,101714.03
2022-11-12T12:07:43.360Z,101702.00
2022-11-12T12:11:01.757Z,101700.75
2022-11-12T12:13:51.998Z,101688.78
2022-11-12T12:16:46.277Z,101689.84
2022-11-12T12:20:02.301Z,101685.41
2022-11-12T12:23:19.613Z,101677.31
2022-11-12T12:26:12.680Z,101677.88
2022-11-12T12:29:17.342Z,101672.38
2022-11-12T12:32:07.004Z,101654.22
2022-11-12T12:35:02.330Z,101665.28
2022-11-12T12:38:13.894Z,101675.19
2022-11-12T12:41:28.133Z,101673.66
2022-11-12T12:44:13.763Z,101669.53
2022-11-12T12:47:01.936Z,101661.50
2022-11-12T12:49:50.095Z,101656.22
2022-11-12T12:53:16.370Z,101657.72
2022-11-12T12:56:05.899Z,101655.94
2022-11-12T12:58:52.029Z,101646.47
2022-11-12T13:01:37.891Z,101651.44
2022-11-12T13:04:51.987Z,101638.47
2022-11-12T13:07:47.608Z,101638.19
2022-11-12T13:10:39.321Z,101638.69
2022-11-12T13:13:32.422Z,101637.81
2022-11-12T13:16:52.905Z,101630.94
2022-11-12T13:19:39.727Z,101621.09
2022-11-12T13:22:25.146Z,101621.84
2022-11-12T13:25:10.579Z,101634.47
2022-11-12T13:28:12.373Z,101640.94
2022-11-12T13:31:00.114Z,101647.84
2022-11-12T13:33:46.090Z,101656.31
2022-11-12T13:36:31.629Z,101649.00
2022-11-12T13:39:20.507Z,101639.59
2022-11-12T13:42:36.746Z,101644.47
2022-11-12T13:45:25.379Z,101650.16
2022-11-12T13:48:22.001Z,101646.03
2022-11-12T13:51:19.877Z,101641.53
2022-11-12T13:54:25.652Z,101647.50
2022-11-12T13:57:20.711Z,101642.59
2022-11-12T14:00:17.162Z,101650.56
2022-11-12T14:03:08.495Z,101640.69
2022-11-12T14:05:55.847Z,101643.28
2022-11-12T14:09:22.638Z,101642.25
2022-11-12T14:12:45.498Z,101639.34
2022-11-12T14:15:57.284Z,101641.84
2022-11-12T14:19:10.965Z,101638.38
2022-11-12T14:22:15.137Z,101625.78
2022-11-12T14:25:21.950Z,101617.28
2022-11-12T14:28:25.955Z,101619.78
2022-11-12T14:31:14.694Z,101625.00
2022-11-12T14:34:19.796Z,101632.00
2022-11-12T14:37:05.708Z,101631.22
2022-11-12T14:39:53.519Z,101630.41
2022-11-12T14:42:40.356Z,101633.09
2022-11-12T14:45:28.014Z,101629.25
2022-11-12T14:48:17.513Z,101628.53
2022-11-12T14:51:13.894Z,101629.81
2022-11-12T14:54:06.760Z,101631.81
2022-11-12T14:56:52.903Z,101635.16
2022-11-12T14:59:38.659Z,101630.72
2022-11-12T15:02:46.914Z,101631.16
2022-11-12T15:05:57.449Z,101629.53
2022-11-12T15:08:43.170Z,101633.59
2022-11-12T15:11:58.553Z,101630.66
2022-11-12T15:14:44.544Z,101636.38
2022-11-12T15:17:35.806Z,101633.91
2022-11-12T15:20:21.756Z,101621.09
2022-11-12T15:23:19.119Z,101634.59
2022-11-12T15:26:17.030Z,101640.09
2022-11-12T15:29:15.819Z,101637.84
2022-11-12T15:32:21.993Z,101646.63
2022-11-12T15:35:27.332Z,101635.69
2022-11-12T15:38:38.776Z,101640.31
2022-11-12T15:41:29.704Z,101641.72
2022-11-12T15:44:15.651Z,101642.78
2022-11-12T15:47:03.512Z,101641.97
2022-11-12T15:49:54.834Z,101636.09
2022-11-12T15:52:41.762Z,101644.84
2022-11-12T15:55:29.709Z,101647.13
2022-11-12T15:58:20.871Z,101648.91
2022-11-12T16:01:07.249Z,101651.16
2022-11-12T16:03:53.178Z,101655.72
2022-11-12T16:06:39.188Z,101657.84
2022-11-12T16:09:25.131Z,101649.13
2022-11-12T16:12:12.964Z,101643.59
2022-11-12T16:14:59.658Z,101647.97
2022-11-12T16:17:46.152Z,101646.56
2022-11-12T16:20:35.957Z,101645.38
2022-11-12T16:23:21.599Z,101645.88
2022-11-12T16:26:09.683Z,101655.03
2022-11-12T16:28:55.677Z,101658.50
2022-11-12T16:31:43.722Z,101658.72
2022-11-12T16:34:29.635Z,101663.84
2022-11-12T16:37:16.269Z,101657.31
2022-11-12T16:40:01.858Z,101652.66
2022-11-12T16:42:47.866Z,101647.66
2022-11-12T16:45:41.266Z,101659.72
2022-11-12T16:48:27.532Z,101657.22
2022-11-12T16:51:18.499Z,101656.22
2022-11-12T16:54:04.565Z,101657.53
2022-11-12T16:56:50.386Z,101653.13
2022-11-12T16:59:36.585Z,101656.69
2022-11-12T17:02:22.394Z,101649.28
2022-11-12T17:05:14.158Z,101653.84
2022-11-12T17:07:59.848Z,101661.78
2022-11-12T17:10:45.307Z,101662.44
2022-11-12T17:13:30.831Z,101668.53
2022-11-12T17:16:16.828Z,101663.34
2022-11-12T17:19:03.056Z,101660.19
2022-11-12T17:21:49.005Z,101668.25
2022-11-12T17:24:34.465Z,101667.44
2022-11-12T17:27:19.898Z,101668.66
2022-11-12T17:30:06.459Z,101666.97
2022-11-12T17:32:52.203Z,101668.66
2022-11-12T17:35:38.173Z,101670.44
2022-11-12T17:38:23.838Z,101668.03
2022-11-12T17:41:10.359Z,101662.34
2022-11-12T17:44:00.567Z,101666.78
2022-11-12T17:46:47.477Z,101659.28
2022-11-12T17:49:33.213Z,101654.81
2022-11-12T17:52:19.051Z,101650.72
2022-11-12T17:55:04.951Z,101650.50
2022-11-12T17:57:50.827Z,101645.88
2022-11-12T18:00:38.139Z,101648.34
2022-11-12T18:03:23.944Z,101642.03
2022-11-12T18:06:15.035Z,101646.88
2022-11-12T18:09:06.359Z,101648.75
2022-11-12T18:11:56.941Z,101660.81
2022-11-12T18:14:42.701Z,101653.41
2022-11-12T18:17:28.852Z,101643.81
2022-11-12T18:20:14.868Z,101650.72
2022-11-12T18:23:00.770Z,101657.00
2022-11-12T18:25:46.657Z,101651.53
2022-11-12T18:28:32.308Z,101653.47
2022-11-12T18:31:18.348Z,101661.31
2022-11-12T18:34:04.469Z,101666.31
2022-11-12T18:36:50.207Z,101668.13
2022-11-12T18:39:35.862Z,101669.63
2022-11-12T18:42:21.636Z,101668.81
2022-11-12T18:45:08.558Z,101667.97
2022-11-12T18:47:54.136Z,101673.75
2022-11-12T18:50:39.665Z,101678.31
2022-11-12T18:53:27.079Z,101677.97
2022-11-12T18:56:18.938Z,101670.63
2022-11-12T18:59:05.050Z,101672.16
2022-11-12T19:01:50.880Z,101666.47
2022-11-12T19:04:41.111Z,101680.03
2022-11-12T19:07:29.991Z,101676.66
2022-11-12T19:10:16.074Z,101672.97
2022-11-12T19:13:04.185Z,101668.78
2022-11-12T19:15:50.124Z,101672.63
2022-11-12T19:18:35.754Z,101666.41
2022-11-12T19:21:24.134Z,101665.28
2022-11-12T19:24:10.000Z,101670.66
2022-11-12T19:26:55.945Z,101671.59
2022-11-12T19:29:41.855Z,101666.22
2022-11-12T19:32:27.765Z,101664.97
2022-11-12T19:35:13.402Z,101666.78
2022-11-12T19:37:58.976Z,101670.66
2022-11-12T19:40:44.424Z,101672.97
2022-11-12T19:43:30.225Z,101674.97
2022-11-12T19:46:16.422Z,101678.06
2022-11-12T19:49:01.863Z,101671.66
2022-11-12T19:51:47.740Z,101673.66
2022-11-12T19:54:33.215Z,101682.72
2022-11-12T19:57:18.693Z,101683.69
2022-11-12T20:00:04.711Z,101680.88
2022-11-12T20:02:50.624Z,101686.03
2022-11-12T20:05:36.367Z,101679.88
2022-11-12T20:08:24.257Z,101687.97
2022-11-12T20:11:10.372Z,101697.88
2022-11-12T20:13:56.682Z,101690.97
2022-11-12T20:16:42.490Z,101697.88
2022-11-12T20:19:28.171Z,101688.63
2022-11-12T20:22:14.153Z,101692.31
2022-11-12T20:24:59.855Z,101696.34
2022-11-12T20:27:45.589Z,101703.69
2022-11-12T20:30:31.213Z,101712.81
2022-11-12T20:33:16.995Z,101706.25
2022-11-12T20:36:20.577Z,101709.56
2022-11-12T20:39:06.485Z,101706.00
2022-11-12T20:41:52.044Z,101712.56
2022-11-12T20:44:38.039Z,101702.22
2022-11-12T20:47:23.670Z,101707.28
2022-11-12T20:50:09.522Z,101697.31
2022-11-12T20:52:55.038Z,101705.25
2022-11-12T20:55:40.868Z,101694.97
2022-11-12T20:58:30.210Z,101695.72
2022-11-12T21:01:18.680Z,101690.06
2022-11-12T21:04:04.443Z,101695.81
2022-11-12T21:06:51.971Z,101685.06
2022-11-12T21:09:37.549Z,101690.16
2022-11-12T21:12:29.729Z,101683.53
2022-11-12T21:15:16.186Z,101679.38
2022-11-12T21:18:02.397Z,101681.59
2022-11-12T21:20:48.453Z,101680.38
2022-11-12T21:23:37.078Z,101679.38
2022-11-12T21:26:23.102Z,101683.59
2022-11-12T21:29:08.997Z,101686.84
2022-11-12T21:31:54.817Z,101687.97
2022-11-12T21:34:40.374Z,101694.59
2022-11-12T21:37:26.010Z,101698.09
2022-11-12T21:40:11.920Z,101704.13
2022-11-12T21:43:00.492Z,101703.47
2022-11-12T21:45:47.252Z,101700.16
2022-11-12T21:48:32.818Z,101698.00
2022-11-12T21:51:20.742Z,101700.75
2022-11-12T21:54:07.540Z,101700.28
2022-11-12T21:57:18.585Z,101693.50
2022-11-12T22:00:39.709Z,101705.84
2022-11-12T22:03:14.573Z,101693.13
2022-11-12T22:06:03.603Z,101696.03
2022-11-12T22:08:54.339Z,101692.84
2022-11-12T22:11:40.292Z,101689.66
2022-11-12T22:14:26.361Z,101686.81
2022-11-12T22:17:12.792Z,101685.75
2022-11-12T22:19:59.066Z,101686.59
2022-11-12T22:22:44.992Z,101673.47
2022-11-12T22:25:30.562Z,101680.44
2022-11-12T22:28:16.913Z,101679.75
2022-11-12T22:31:20.826Z,101690.31
2022-11-12T22:34:08.152Z,101684.81
2022-11-12T22:36:53.819Z,101678.69
2022-11-12T22:39:39.507Z,101680.06
2022-11-12T22:42:25.123Z,101681.88
2022-11-12T22:45:21.009Z,101683.75
2022-11-12T22:48:08.013Z,101688.47
2022-11-12T22:50:59.258Z,101690.94
2022-11-12T22:53:45.347Z,101692.50
2022-11-12T22:56:34.855Z,101699.03
2022-11-12T22:59:21.068Z,101706.22
2022-11-12T23:02:08.109Z,101703.50
2022-11-12T23:04:54.071Z,101697.16
2022-11-12T23:07:39.911Z,101698.25
2022-11-12T23:10:25.469Z,101694.72
2022-11-12T23:13:11.101Z,101689.53
2022-11-12T23:15:57.012Z,101696.63
2022-11-12T23:18:45.413Z,101687.97
2022-11-12T23:21:31.373Z,101685.19
2022-11-12T23:24:18.425Z,101677.31
2022-11-12T23:27:04.235Z,101678.22
2022-11-12T23:29:50.044Z,101669.63
2022-11-12T23:32:36.045Z,101674.72
2022-11-12T23:35:21.795Z,101668.31
2022-11-12T23:38:07.464Z,101667.28
2022-11-12T23:40:56.068Z,101670.16
2022-11-12T23:43:42.109Z,101669.75
2022-11-12T23:46:28.135Z,101666.88
